Koppie Airport

Jump to: basic info | weather | runways | comments

Related pages: nearby airports | nearby navaids | notams | map

Basic information (top)

Codes: 7IS5
Location: lon 42.121399, lat -88.378098, elev 890 ft / 271 m msl
Status: small_airport

Weather (top)

Current conditions for Dupage Airport 14nm (26km) SSE (rec'd 2014/08/30 12:05Z):

KDPA 301205Z 18007KT 9SM VCTS FEW005 SCT060 BKN075 22/21 A2985 RMK AO2 LTG DSNT E RAE1153 TSE1159 P0000 T02170206

Airport forecast for Dupage Airport 14nm (26km) SSE (rec'd 2014/08/30 12:48Z):

TAF COR KDPA 301146Z 3012/3112 20010KT P6SM FEW015 OVC080 
      TEMPO 3012/3014 2SM TSRA BR BKN009 BKN015CB OVC060 
     FM301400 22012G18KT P6SM BKN035 
      TEMPO 3014/3018 4SM -TSRA BR SCT030CB BKN035 
     FM310000 23008KT P6SM SCT250 
     FM310500 VRB03KT 4SM BR SCT007 
     FM310700 VRB03KT 2SM BR BKN015 
      TEMPO 3108/3112 BKN007

Runways (top)

N/S: 2,300 x 100 ft (701 x 30 m) — grass — not lighted

Latest comments (top)

No comments yet for Koppie Airport

More... (top)

See also NOTAMs and nearby airports and navaids, or visit the Koppie Airport page at the main OurAirports website..